createdAt,value
2022-12-25T00:00:26.845Z,5.94
2022-12-25T00:02:55.842Z,5.95
2022-12-25T00:05:25.739Z,5.89
2022-12-25T00:08:01.470Z,5.83
2022-12-25T00:10:32.412Z,5.82
2022-12-25T00:13:00.364Z,5.80
2022-12-25T00:15:28.805Z,5.80
2022-12-25T00:17:58.585Z,5.79
2022-12-25T00:20:30.543Z,5.79
2022-12-25T00:22:59.942Z,5.77
2022-12-25T00:25:27.852Z,5.81
2022-12-25T00:27:58.880Z,5.89
2022-12-25T00:30:35.624Z,5.81
2022-12-25T00:33:05.022Z,5.78
2022-12-25T00:35:32.924Z,5.74
2022-12-25T00:38:02.244Z,5.73
2022-12-25T00:40:30.267Z,5.74
2022-12-25T00:43:03.352Z,5.80
2022-12-25T00:45:31.349Z,5.83
2022-12-25T00:47:59.290Z,5.82
2022-12-25T00:50:27.290Z,5.84
2022-12-25T00:52:55.219Z,5.89
2022-12-25T00:55:24.509Z,5.98
2022-12-25T00:57:52.598Z,5.90
2022-12-25T01:00:20.926Z,5.94
2022-12-25T01:02:48.981Z,5.90
2022-12-25T01:05:17.161Z,5.89
2022-12-25T01:07:45.119Z,5.88
2022-12-25T01:10:23.987Z,5.77
2022-12-25T01:12:53.705Z,5.71
2022-12-25T01:15:21.958Z,5.78
2022-12-25T01:17:49.873Z,5.71
2022-12-25T01:20:19.464Z,5.71
2022-12-25T01:22:47.412Z,5.75
2022-12-25T01:25:15.415Z,5.83
2022-12-25T01:27:43.624Z,5.78
2022-12-25T01:30:13.621Z,5.77
2022-12-25T01:32:41.599Z,5.81
2022-12-25T01:35:10.012Z,5.82
2022-12-25T01:37:37.958Z,5.93
2022-12-25T01:40:08.995Z,5.93
2022-12-25T01:42:37.216Z,5.92
2022-12-25T01:45:35.956Z,5.95
2022-12-25T01:48:08.009Z,5.98
2022-12-25T01:50:38.123Z,6.01
2022-12-25T01:53:07.188Z,6.05
2022-12-25T01:55:37.291Z,6.10
2022-12-25T01:58:05.668Z,6.14
2022-12-25T02:00:35.405Z,6.20
2022-12-25T02:03:03.701Z,6.18
2022-12-25T02:05:33.697Z,6.19
2022-12-25T02:08:05.328Z,6.17
2022-12-25T02:10:33.581Z,6.17
2022-12-25T02:13:02.262Z,6.20
2022-12-25T02:15:40.035Z,6.25
2022-12-25T02:18:13.809Z,6.23
2022-12-25T02:20:53.953Z,6.21
2022-12-25T02:23:51.963Z,6.21
2022-12-25T02:26:46.218Z,6.14
2022-12-25T02:29:20.609Z,6.13
2022-12-25T02:31:55.309Z,6.11
2022-12-25T02:34:32.177Z,6.24
2022-12-25T02:37:07.696Z,6.15
2022-12-25T02:40:00.367Z,6.19
2022-12-25T02:42:53.000Z,6.23
2022-12-25T02:45:44.716Z,6.34
2022-12-25T02:48:32.130Z,6.25
2022-12-25T02:51:19.778Z,6.22
2022-12-25T02:54:10.122Z,6.22
2022-12-25T02:56:58.817Z,6.22
2022-12-25T02:59:47.749Z,6.15
2022-12-25T03:02:33.706Z,6.08
2022-12-25T03:05:22.742Z,6.11
2022-12-25T03:07:51.568Z,6.15
2022-12-25T03:10:38.333Z,6.16
2022-12-25T03:13:13.697Z,6.16
2022-12-25T03:15:59.200Z,6.19
2022-12-25T03:18:31.586Z,6.12
2022-12-25T03:21:17.730Z,6.12
2022-12-25T03:24:16.476Z,6.13
2022-12-25T03:26:57.541Z,6.12
2022-12-25T03:29:45.223Z,6.14
2022-12-25T03:32:21.239Z,6.20
2022-12-25T03:35:16.538Z,6.18
2022-12-25T03:38:17.432Z,6.15
2022-12-25T03:41:14.479Z,6.14
2022-12-25T03:44:08.327Z,6.18
2022-12-25T03:46:59.520Z,6.10
2022-12-25T03:50:04.092Z,6.09
2022-12-25T03:52:53.314Z,6.15
2022-12-25T03:55:41.023Z,6.16
2022-12-25T03:58:36.078Z,6.15
2022-12-25T04:01:21.391Z,6.21
2022-12-25T04:04:06.759Z,6.23
2022-12-25T04:06:52.056Z,6.19
2022-12-25T04:09:35.220Z,6.17
2022-12-25T04:12:20.674Z,6.13
2022-12-25T04:15:02.601Z,6.12
2022-12-25T04:17:48.025Z,6.13
2022-12-25T04:20:33.802Z,6.08
2022-12-25T04:23:19.082Z,6.09
2022-12-25T04:26:05.587Z,6.06
2022-12-25T04:28:50.811Z,6.05
2022-12-25T04:31:36.716Z,6.02
2022-12-25T04:34:21.996Z,6.02
2022-12-25T04:36:49.951Z,6.03
2022-12-25T04:39:18.116Z,5.98
2022-12-25T04:41:47.537Z,5.98
2022-12-25T04:44:15.629Z,5.91
2022-12-25T04:46:43.600Z,6.00
2022-12-25T04:49:11.640Z,5.96
2022-12-25T04:51:39.764Z,5.96
2022-12-25T04:54:07.772Z,5.93
2022-12-25T04:56:41.704Z,5.93
2022-12-25T04:59:14.841Z,5.95
2022-12-25T05:01:43.121Z,6.00
2022-12-25T05:04:11.201Z,5.89
2022-12-25T05:06:39.123Z,5.91
2022-12-25T05:09:07.201Z,5.88
2022-12-25T05:11:35.148Z,5.90
2022-12-25T05:14:03.057Z,5.84
2022-12-25T05:16:32.617Z,5.85
2022-12-25T05:19:00.580Z,5.81
2022-12-25T05:21:28.511Z,5.77
2022-12-25T05:23:56.540Z,5.76
2022-12-25T05:26:27.322Z,5.81
2022-12-25T05:28:56.088Z,5.67
2022-12-25T05:31:24.319Z,5.63
2022-12-25T05:33:54.019Z,5.62
2022-12-25T05:36:21.988Z,5.63
2022-12-25T05:38:49.962Z,5.60
2022-12-25T05:41:18.004Z,5.69
2022-12-25T05:43:46.004Z,5.67
2022-12-25T05:46:14.505Z,5.76
2022-12-25T05:48:43.027Z,5.87
2022-12-25T05:51:14.727Z,5.91
2022-12-25T05:53:43.840Z,5.90
2022-12-25T05:56:12.295Z,5.84
2022-12-25T05:58:41.304Z,5.93
2022-12-25T06:01:13.153Z,5.83
2022-12-25T06:03:41.360Z,5.79
2022-12-25T06:06:09.527Z,5.75
2022-12-25T06:08:39.121Z,5.72
2022-12-25T06:11:08.702Z,5.74
2022-12-25T06:13:37.635Z,5.87
2022-12-25T06:16:08.021Z,5.88
2022-12-25T06:18:36.977Z,5.88
2022-12-25T06:21:07.887Z,5.99
2022-12-25T06:23:36.229Z,5.97
2022-12-25T06:26:07.291Z,6.01
2022-12-25T06:28:35.449Z,6.01
2022-12-25T06:31:07.415Z,6.08
2022-12-25T06:33:35.410Z,6.14
2022-12-25T06:36:07.007Z,6.22
2022-12-25T06:38:35.228Z,6.29
2022-12-25T06:41:11.711Z,6.44
2022-12-25T06:43:40.121Z,6.49
2022-12-25T06:46:10.138Z,6.60
2022-12-25T06:48:39.588Z,6.62
2022-12-25T06:51:08.309Z,6.64
2022-12-25T06:53:40.146Z,6.70
2022-12-25T06:56:15.395Z,6.85
2022-12-25T06:58:45.024Z,6.85
2022-12-25T07:01:19.651Z,6.87
2022-12-25T07:03:49.335Z,6.91
2022-12-25T07:06:17.342Z,6.88
2022-12-25T07:08:45.389Z,6.95
2022-12-25T07:11:14.713Z,6.98
2022-12-25T07:13:42.659Z,7.07
2022-12-25T07:16:12.435Z,7.11
2022-12-25T07:18:40.569Z,7.25
2022-12-25T07:21:09.904Z,7.37
2022-12-25T07:23:38.593Z,7.53
2022-12-25T07:26:07.221Z,7.56
2022-12-25T07:28:36.580Z,7.55
2022-12-25T07:31:06.097Z,7.62
2022-12-25T07:33:35.042Z,7.62
2022-12-25T07:36:03.497Z,7.64
2022-12-25T07:38:31.816Z,7.77
2022-12-25T07:40:59.809Z,7.79
2022-12-25T07:43:28.228Z,7.88
2022-12-25T07:45:58.779Z,8.04
2022-12-25T07:48:27.347Z,8.27
2022-12-25T07:50:59.405Z,8.52
2022-12-25T07:53:27.624Z,8.74
2022-12-25T07:56:00.803Z,9.07
2022-12-25T07:58:28.876Z,9.15
2022-12-25T08:01:04.389Z,9.49
2022-12-25T08:03:32.722Z,9.77
2022-12-25T08:06:01.864Z,10.12
2022-12-25T08:08:31.483Z,10.38
2022-12-25T08:10:59.740Z,10.91
2022-12-25T08:13:27.803Z,11.01
2022-12-25T08:15:59.984Z,10.85
2022-12-25T08:18:30.255Z,10.90
2022-12-25T08:21:02.960Z,11.61
2022-12-25T08:23:30.926Z,12.01
2022-12-25T08:26:05.085Z,11.92
2022-12-25T08:28:35.317Z,11.58
2022-12-25T08:31:10.067Z,11.71
2022-12-25T08:33:38.679Z,11.71
2022-12-25T08:36:08.614Z,11.80
2022-12-25T08:38:37.061Z,11.75
2022-12-25T08:41:06.948Z,11.88
2022-12-25T08:43:35.313Z,12.07
2022-12-25T08:46:03.456Z,12.21
2022-12-25T08:48:33.247Z,12.50
2022-12-25T08:51:01.980Z,12.80
2022-12-25T08:53:29.982Z,13.18
2022-12-25T08:55:59.786Z,13.40
2022-12-25T08:58:28.722Z,13.70
2022-12-25T09:00:56.944Z,13.91
2022-12-25T09:03:25.105Z,13.73
2022-12-25T09:05:55.289Z,13.25
2022-12-25T09:08:23.371Z,13.19
2022-12-25T09:10:51.319Z,13.17
2022-12-25T09:13:19.356Z,13.00
2022-12-25T09:15:47.458Z,13.06
2022-12-25T09:18:15.520Z,13.06
2022-12-25T09:20:43.432Z,13.09
2022-12-25T09:23:14.398Z,12.78
2022-12-25T09:25:42.519Z,13.03
2022-12-25T09:28:10.430Z,13.21
2022-12-25T09:30:38.406Z,13.14
2022-12-25T09:33:07.124Z,13.29
2022-12-25T09:35:35.133Z,13.38
2022-12-25T09:38:03.212Z,13.55
2022-12-25T09:40:33.891Z,13.48
2022-12-25T09:43:03.955Z,13.61
2022-12-25T09:45:36.939Z,13.42
2022-12-25T09:48:05.586Z,13.80
2022-12-25T09:50:43.807Z,14.29
2022-12-25T09:53:16.940Z,14.50
2022-12-25T09:55:54.073Z,14.85
2022-12-25T09:58:22.129Z,14.84
2022-12-25T10:00:59.703Z,14.76
2022-12-25T10:03:59.577Z,15.00
2022-12-25T10:06:35.930Z,15.18
2022-12-25T10:09:17.497Z,15.16
2022-12-25T10:12:00.879Z,14.97
2022-12-25T10:14:37.624Z,14.84
2022-12-25T10:17:24.809Z,15.07
2022-12-25T10:20:00.926Z,14.66
2022-12-25T10:22:34.653Z,14.86
2022-12-25T10:25:04.652Z,15.11
2022-12-25T10:27:38.212Z,15.31
2022-12-25T10:30:15.974Z,15.40
2022-12-25T10:32:45.523Z,15.67
2022-12-25T10:35:15.042Z,15.83
2022-12-25T10:37:44.569Z,16.01
2022-12-25T10:40:32.238Z,16.22
2022-12-25T10:43:08.934Z,16.38
2022-12-25T10:45:44.869Z,16.71
2022-12-25T10:48:21.652Z,17.39
2022-12-25T10:50:50.335Z,17.95
2022-12-25T10:53:22.397Z,18.40
2022-12-25T10:55:58.808Z,18.46
2022-12-25T10:58:28.898Z,18.83
2022-12-25T11:01:00.088Z,18.72
2022-12-25T11:03:31.355Z,19.04
2022-12-25T11:05:59.644Z,18.83
2022-12-25T11:08:29.981Z,19.07
2022-12-25T11:11:06.183Z,19.08
2022-12-25T11:13:40.619Z,19.74
2022-12-25T11:16:11.744Z,20.25
2022-12-25T11:18:48.667Z,19.54
2022-12-25T11:21:18.543Z,19.56
2022-12-25T11:23:49.787Z,19.99
2022-12-25T11:26:19.304Z,19.80
2022-12-25T11:28:51.343Z,19.63
2022-12-25T11:31:21.068Z,20.39
2022-12-25T11:33:54.996Z,20.78
2022-12-25T11:36:30.375Z,20.83
2022-12-25T11:39:06.011Z,20.57
2022-12-25T11:41:37.506Z,20.59
2022-12-25T11:44:17.069Z,20.83
2022-12-25T11:46:50.380Z,20.79
2022-12-25T11:49:21.401Z,21.36
2022-12-25T11:51:53.105Z,21.35
2022-12-25T11:54:26.461Z,20.55
2022-12-25T11:56:55.091Z,20.86
2022-12-25T11:59:28.523Z,20.68
2022-12-25T12:02:01.249Z,20.97
2022-12-25T12:04:40.245Z,20.78
2022-12-25T12:07:21.908Z,21.01
2022-12-25T12:09:56.346Z,20.74
2022-12-25T12:12:33.387Z,20.91
2022-12-25T12:15:10.173Z,20.69
2022-12-25T12:17:38.236Z,20.23
2022-12-25T12:20:13.485Z,20.75
2022-12-25T12:22:51.417Z,20.53
2022-12-25T12:25:20.008Z,20.78
2022-12-25T12:27:59.745Z,20.71
2022-12-25T12:30:35.857Z,20.77
2022-12-25T12:33:07.484Z,20.56
2022-12-25T12:35:38.292Z,20.45
2022-12-25T12:38:12.363Z,20.81
2022-12-25T12:40:42.758Z,20.98
2022-12-25T12:43:30.131Z,20.90
2022-12-25T12:46:05.267Z,20.00
2022-12-25T12:48:41.558Z,20.02
2022-12-25T12:51:11.612Z,19.90
2022-12-25T12:53:41.178Z,20.33
2022-12-25T12:56:16.280Z,20.18
2022-12-25T12:58:49.873Z,20.42
2022-12-25T13:01:43.655Z,20.35
2022-12-25T13:04:48.280Z,19.98
2022-12-25T13:07:33.037Z,19.83
2022-12-25T13:10:14.700Z,20.19
2022-12-25T13:12:42.786Z,20.01
2022-12-25T13:15:14.120Z,19.57
2022-12-25T13:17:48.056Z,19.61
2022-12-25T13:20:31.324Z,19.46
2022-12-25T13:22:59.317Z,19.30
2022-12-25T13:25:27.246Z,18.76
2022-12-25T13:27:59.689Z,18.68
2022-12-25T13:30:28.251Z,18.97
2022-12-25T13:33:00.169Z,19.24
2022-12-25T13:35:28.816Z,19.33
2022-12-25T13:37:57.761Z,18.92
2022-12-25T13:40:28.205Z,18.81
2022-12-25T13:42:59.189Z,18.66
2022-12-25T13:45:29.750Z,18.50
2022-12-25T13:48:00.113Z,18.30
2022-12-25T13:50:30.510Z,17.82
2022-12-25T13:53:12.386Z,17.56
2022-12-25T13:55:42.854Z,17.21
2022-12-25T13:58:23.824Z,17.08
2022-12-25T14:00:55.697Z,16.92
2022-12-25T14:03:31.554Z,16.58
2022-12-25T14:06:01.706Z,16.32
2022-12-25T14:08:32.238Z,16.26
2022-12-25T14:11:03.766Z,16.14
2022-12-25T14:13:33.899Z,16.27
2022-12-25T14:16:02.605Z,16.40
2022-12-25T14:18:32.237Z,15.94
2022-12-25T14:21:03.517Z,15.93
2022-12-25T14:23:40.579Z,16.04
2022-12-25T14:26:08.775Z,15.24
2022-12-25T14:28:37.768Z,15.11
2022-12-25T14:31:06.242Z,14.96
2022-12-25T14:33:39.607Z,15.00
2022-12-25T14:36:08.525Z,14.96
2022-12-25T14:38:36.253Z,14.66
2022-12-25T14:41:07.594Z,14.41
2022-12-25T14:43:36.499Z,14.29
2022-12-25T14:46:06.970Z,13.93
2022-12-25T14:48:36.500Z,13.71
2022-12-25T14:51:07.187Z,13.52
2022-12-25T14:53:39.387Z,13.12
2022-12-25T14:56:09.074Z,12.99
2022-12-25T14:58:42.749Z,12.81
2022-12-25T15:01:22.058Z,12.57
2022-12-25T15:03:51.732Z,12.54
2022-12-25T15:06:22.429Z,12.31
2022-12-25T15:08:57.812Z,12.14
2022-12-25T15:11:25.854Z,11.93
2022-12-25T15:13:53.906Z,11.72
2022-12-25T15:16:24.352Z,11.51
2022-12-25T15:18:54.863Z,11.35
2022-12-25T15:21:26.800Z,11.26
2022-12-25T15:23:55.637Z,11.05
2022-12-25T15:26:24.027Z,10.86
2022-12-25T15:28:52.426Z,10.81
2022-12-25T15:31:23.463Z,10.64
2022-12-25T15:33:54.148Z,10.36
2022-12-25T15:36:22.437Z,10.42
2022-12-25T15:38:51.212Z,10.25
2022-12-25T15:41:36.821Z,10.11
2022-12-25T15:44:06.615Z,10.04
2022-12-25T15:46:35.271Z,9.90
2022-12-25T15:49:05.592Z,9.81
2022-12-25T15:51:34.065Z,9.71
2022-12-25T15:54:02.071Z,9.61
2022-12-25T15:56:31.146Z,9.59
2022-12-25T15:58:58.814Z,9.47
2022-12-25T16:01:26.862Z,9.45
2022-12-25T16:03:55.034Z,9.38
2022-12-25T16:06:24.518Z,9.31
2022-12-25T16:08:52.425Z,9.21
2022-12-25T16:11:20.383Z,9.14
2022-12-25T16:13:48.388Z,9.31
2022-12-25T16:16:16.452Z,9.22
2022-12-25T16:18:47.658Z,9.18
2022-12-25T16:21:18.753Z,9.06
2022-12-25T16:23:48.317Z,9.12
2022-12-25T16:26:16.358Z,9.06
2022-12-25T16:28:44.444Z,9.05
2022-12-25T16:31:13.144Z,9.06
2022-12-25T16:33:41.210Z,8.92
2022-12-25T16:36:09.966Z,8.90
2022-12-25T16:38:38.510Z,8.83
2022-12-25T16:41:09.245Z,8.88
2022-12-25T16:43:37.239Z,8.71
2022-12-25T16:46:10.129Z,8.76
2022-12-25T16:48:38.257Z,8.67
2022-12-25T16:51:09.858Z,8.66
2022-12-25T16:53:37.927Z,8.69
2022-12-25T16:56:08.690Z,8.51
2022-12-25T16:58:36.693Z,8.47
2022-12-25T17:01:08.839Z,8.41
2022-12-25T17:03:36.976Z,8.49
2022-12-25T17:06:05.763Z,8.42
2022-12-25T17:08:33.763Z,8.39
2022-12-25T17:11:05.113Z,8.28
2022-12-25T17:13:35.306Z,8.27
2022-12-25T17:16:13.540Z,8.26
2022-12-25T17:18:41.498Z,8.31
2022-12-25T17:21:09.646Z,8.29
2022-12-25T17:23:38.251Z,8.22
2022-12-25T17:26:07.184Z,8.18
2022-12-25T17:28:36.548Z,8.25
2022-12-25T17:31:05.036Z,8.23
2022-12-25T17:33:33.821Z,8.22
2022-12-25T17:36:06.160Z,8.15
2022-12-25T17:38:35.002Z,8.28
2022-12-25T17:41:05.605Z,8.30
2022-12-25T17:43:34.126Z,8.29
2022-12-25T17:46:07.154Z,8.25
2022-12-25T17:48:36.461Z,8.37
2022-12-25T17:51:05.669Z,8.33
2022-12-25T17:53:35.967Z,8.37
2022-12-25T17:56:04.066Z,8.37
2022-12-25T17:58:32.106Z,8.39
2022-12-25T18:01:08.042Z,8.33
2022-12-25T18:03:36.870Z,8.45
2022-12-25T18:06:05.624Z,8.39
2022-12-25T18:08:38.959Z,8.39
2022-12-25T18:11:10.315Z,8.33
2022-12-25T18:13:40.545Z,8.26
2022-12-25T18:16:10.569Z,8.37
2022-12-25T18:18:38.537Z,8.37
2022-12-25T18:21:06.791Z,8.42
2022-12-25T18:23:35.126Z,8.41
2022-12-25T18:26:03.619Z,8.45
2022-12-25T18:28:32.011Z,8.43
2022-12-25T18:31:00.454Z,8.46
2022-12-25T18:33:29.854Z,8.40
2022-12-25T18:35:59.134Z,8.40
2022-12-25T18:38:28.594Z,8.35
2022-12-25T18:40:57.034Z,8.39
2022-12-25T18:43:51.541Z,8.44
2022-12-25T18:46:13.472Z,8.43
2022-12-25T18:48:42.906Z,8.48
2022-12-25T18:51:14.547Z,8.44
2022-12-25T18:53:42.994Z,8.42
2022-12-25T18:56:13.459Z,8.49
2022-12-25T18:58:41.721Z,8.63
2022-12-25T19:01:15.312Z,8.66
2022-12-25T19:03:45.839Z,8.64
2022-12-25T19:06:18.369Z,8.73
2022-12-25T19:08:46.972Z,8.75
2022-12-25T19:11:15.068Z,8.73
2022-12-25T19:13:43.445Z,8.87
2022-12-25T19:16:12.100Z,8.96
2022-12-25T19:18:40.497Z,9.03
2022-12-25T19:21:11.161Z,9.08
2022-12-25T19:23:40.010Z,9.24
2022-12-25T19:26:09.590Z,9.34
2022-12-25T19:28:38.677Z,9.36
2022-12-25T19:31:08.177Z,9.41
2022-12-25T19:33:38.423Z,9.35
2022-12-25T19:36:10.739Z,9.28
2022-12-25T19:38:38.768Z,9.49
2022-12-25T19:41:07.792Z,9.38
2022-12-25T19:43:37.856Z,9.46
2022-12-25T19:46:07.115Z,9.54
2022-12-25T19:48:35.909Z,9.59
2022-12-25T19:51:03.903Z,9.64
2022-12-25T19:53:33.231Z,9.51
2022-12-25T19:56:03.359Z,9.40
2022-12-25T19:58:31.348Z,9.41
2022-12-25T20:00:59.983Z,9.36
2022-12-25T20:03:28.405Z,9.44
2022-12-25T20:05:56.611Z,9.29
2022-12-25T20:08:25.364Z,9.27
2022-12-25T20:10:54.674Z,9.19
2022-12-25T20:13:22.685Z,9.32
2022-12-25T20:15:51.284Z,9.19
2022-12-25T20:18:20.752Z,9.25
2022-12-25T20:20:48.709Z,9.33
2022-12-25T20:23:16.673Z,9.26
2022-12-25T20:25:44.639Z,9.29
2022-12-25T20:28:14.797Z,9.24
2022-12-25T20:30:42.946Z,9.20
2022-12-25T20:33:11.148Z,9.15
2022-12-25T20:35:39.152Z,9.18
2022-12-25T20:38:07.546Z,9.33
2022-12-25T20:40:59.936Z,9.17
2022-12-25T20:43:24.942Z,9.12
2022-12-25T20:45:53.464Z,9.01
2022-12-25T20:48:21.477Z,8.90
2022-12-25T20:50:50.998Z,9.01
2022-12-25T20:53:19.567Z,8.90
2022-12-25T20:55:48.944Z,8.86
2022-12-25T20:58:18.213Z,8.79
2022-12-25T21:00:47.736Z,8.76
2022-12-25T21:03:15.819Z,8.76
2022-12-25T21:05:50.710Z,8.84
2022-12-25T21:08:18.767Z,8.92
2022-12-25T21:10:50.510Z,9.13
2022-12-25T21:13:19.116Z,9.09
2022-12-25T21:15:49.710Z,8.96
2022-12-25T21:18:19.062Z,8.95
2022-12-25T21:20:48.968Z,9.01
2022-12-25T21:23:17.510Z,9.15
2022-12-25T21:25:46.139Z,9.16
2022-12-25T21:28:14.520Z,9.07
2022-12-25T21:30:42.736Z,8.99
2022-12-25T21:33:39.000Z,8.92
2022-12-25T21:36:08.627Z,8.83
2022-12-25T21:38:37.741Z,8.69
2022-12-25T21:41:06.280Z,9.06
2022-12-25T21:43:34.687Z,9.17
2022-12-25T21:46:04.376Z,9.05
2022-12-25T21:48:35.349Z,8.90
2022-12-25T21:51:21.349Z,9.02
2022-12-25T21:53:49.529Z,9.20
2022-12-25T21:56:17.823Z,9.11
2022-12-25T21:58:47.161Z,9.11
2022-12-25T22:01:16.723Z,9.19
2022-12-25T22:03:46.368Z,9.16
2022-12-25T22:06:31.502Z,9.16
2022-12-25T22:08:59.424Z,9.11
2022-12-25T22:11:45.266Z,9.10
2022-12-25T22:14:51.008Z,9.04
2022-12-25T22:17:42.719Z,8.97
2022-12-25T22:20:14.852Z,8.85
2022-12-25T22:22:42.952Z,8.78
2022-12-25T22:25:12.018Z,8.78
2022-12-25T22:27:40.236Z,8.77
2022-12-25T22:30:10.473Z,8.63
2022-12-25T22:32:38.512Z,8.65
2022-12-25T22:35:07.456Z,8.53
2022-12-25T22:37:37.279Z,8.60
2022-12-25T22:40:07.384Z,8.55
2022-12-25T22:42:35.499Z,8.52
2022-12-25T22:45:03.763Z,8.42
2022-12-25T22:47:31.864Z,8.43
2022-12-25T22:49:59.896Z,8.49
2022-12-25T22:52:28.166Z,8.52
2022-12-25T22:54:57.590Z,8.44
2022-12-25T22:57:26.634Z,8.47
2022-12-25T22:59:54.674Z,8.41
2022-12-25T23:02:23.362Z,8.36
2022-12-25T23:05:00.562Z,8.41
2022-12-25T23:07:30.521Z,8.49
2022-12-25T23:10:02.469Z,8.44
2022-12-25T23:13:02.391Z,8.45
2022-12-25T23:15:33.416Z,8.43
2022-12-25T23:18:17.954Z,8.30
2022-12-25T23:21:03.564Z,8.22
2022-12-25T23:24:04.389Z,8.28
2022-12-25T23:26:35.188Z,8.15
2022-12-25T23:29:20.872Z,8.02
2022-12-25T23:31:53.723Z,8.01
2022-12-25T23:34:22.410Z,8.12
2022-12-25T23:36:50.372Z,8.30
2022-12-25T23:39:23.244Z,8.07
2022-12-25T23:41:52.718Z,7.95
2022-12-25T23:44:23.334Z,7.95
2022-12-25T23:46:54.226Z,7.82
2022-12-25T23:49:26.216Z,7.96
2022-12-25T23:51:55.516Z,8.03
2022-12-25T23:54:30.985Z,8.05
2022-12-25T23:57:00.814Z,7.97
2022-12-25T23:59:45.271Z,8.07
